sensor_id;sensor_type;location;lat;lon;timestamp;pressure;altitude;pressure_sealevel;temperature;humidity
61474;BME280;53694;49.784;30.150;2022-11-15T00:00:43;100537.83;;;7.04;70.00
61474;BME280;53694;49.784;30.150;2022-11-15T00:01:44;100539.85;;;7.30;68.80
61474;BME280;53694;49.784;30.150;2022-11-15T00:02:46;100538.64;;;7.53;67.99
61474;BME280;53694;49.784;30.150;2022-11-15T00:03:52;100535.76;;;7.67;67.31
61474;BME280;53694;49.784;30.150;2022-11-15T00:04:53;100541.73;;;7.69;66.97
61474;BME280;53694;49.784;30.150;2022-11-15T00:06:00;100533.81;;;7.59;67.23
61474;BME280;53694;49.784;30.150;2022-11-15T00:07:00;100540.84;;;7.42;67.56
61474;BME280;53694;49.784;30.150;2022-11-15T00:08:02;100538.70;;;7.22;67.99
61474;BME280;53694;49.784;30.150;2022-11-15T00:09:04;100532.52;;;6.99;68.42
61474;BME280;53694;49.784;30.150;2022-11-15T00:10:06;100532.88;;;6.75;68.97
61474;BME280;53694;49.784;30.150;2022-11-15T00:11:10;100533.06;;;6.47;69.69
61474;BME280;53694;49.784;30.150;2022-11-15T00:12:12;100535.11;;;6.19;70.70
61474;BME280;53694;49.784;30.150;2022-11-15T00:13:13;100534.62;;;5.95;71.76
61474;BME280;53694;49.784;30.150;2022-11-15T00:14:14;100533.44;;;5.73;72.61
61474;BME280;53694;49.784;30.150;2022-11-15T00:15:16;100530.44;;;5.61;73.31
61474;BME280;53694;49.784;30.150;2022-11-15T00:16:18;100529.00;;;5.64;73.64
61474;BME280;53694;49.784;30.150;2022-11-15T00:17:19;100527.23;;;5.82;73.73
61474;BME280;53694;49.784;30.150;2022-11-15T00:18:21;100531.32;;;6.07;73.32
61474;BME280;53694;49.784;30.150;2022-11-15T00:19:22;100522.23;;;6.34;72.54
61474;BME280;53694;49.784;30.150;2022-11-15T00:20:24;100518.20;;;6.62;71.65
61474;BME280;53694;49.784;30.150;2022-11-15T00:21:26;100524.77;;;6.92;70.75
61474;BME280;53694;49.784;30.150;2022-11-15T00:22:33;100522.30;;;7.22;69.73
61474;BME280;53694;49.784;30.150;2022-11-15T00:23:35;100514.67;;;7.50;68.72
61474;BME280;53694;49.784;30.150;2022-11-15T00:24:37;100515.66;;;7.80;67.98
61474;BME280;53694;49.784;30.150;2022-11-15T00:25:39;100510.19;;;7.97;66.91
61474;BME280;53694;49.784;30.150;2022-11-15T00:26:40;100518.40;;;7.97;66.46
61474;BME280;53694;49.784;30.150;2022-11-15T00:27:42;100511.96;;;7.85;66.62
61474;BME280;53694;49.784;30.150;2022-11-15T00:28:44;100509.55;;;7.66;66.95
61474;BME280;53694;49.784;30.150;2022-11-15T00:29:45;100510.31;;;7.40;67.41
61474;BME280;53694;49.784;30.150;2022-11-15T00:30:47;100501.73;;;7.16;67.97
61474;BME280;53694;49.784;30.150;2022-11-15T00:31:49;100509.84;;;6.90;68.71
61474;BME280;53694;49.784;30.150;2022-11-15T00:32:50;100501.53;;;6.64;69.30
61474;BME280;53694;49.784;30.150;2022-11-15T00:33:52;100501.06;;;6.39;70.13
61474;BME280;53694;49.784;30.150;2022-11-15T00:34:53;100498.37;;;6.17;70.79
61474;BME280;53694;49.784;30.150;2022-11-15T00:36:06;100497.86;;;5.92;71.27
61474;BME280;53694;49.784;30.150;2022-11-15T00:37:08;100489.99;;;5.77;71.76
61474;BME280;53694;49.784;30.150;2022-11-15T00:38:10;100485.86;;;5.80;72.10
61474;BME280;53694;49.784;30.150;2022-11-15T00:39:11;100484.42;;;5.96;72.01
61474;BME280;53694;49.784;30.150;2022-11-15T00:40:14;100492.27;;;6.20;71.59
61474;BME280;53694;49.784;30.150;2022-11-15T00:41:15;100486.67;;;6.47;70.99
61474;BME280;53694;49.784;30.150;2022-11-15T00:42:17;100489.20;;;6.75;70.22
61474;BME280;53694;49.784;30.150;2022-11-15T00:43:18;100487.69;;;7.00;69.47
61474;BME280;53694;49.784;30.150;2022-11-15T00:44:20;100488.09;;;7.24;68.61
61474;BME280;53694;49.784;30.150;2022-11-15T00:45:21;100484.43;;;7.46;67.89
61474;BME280;53694;49.784;30.150;2022-11-15T00:46:23;100485.11;;;7.61;67.07
61474;BME280;53694;49.784;30.150;2022-11-15T00:47:25;100478.01;;;7.60;66.48
61474;BME280;53694;49.784;30.150;2022-11-15T00:48:26;100486.69;;;7.44;66.16
61474;BME280;53694;49.784;30.150;2022-11-15T00:49:27;100481.02;;;7.23;66.65
61474;BME280;53694;49.784;30.150;2022-11-15T00:50:29;100478.41;;;7.01;67.23
61474;BME280;53694;49.784;30.150;2022-11-15T00:51:30;100483.27;;;6.73;67.84
61474;BME280;53694;49.784;30.150;2022-11-15T00:52:32;100481.83;;;6.44;68.60
61474;BME280;53694;49.784;30.150;2022-11-15T00:53:34;100479.75;;;6.19;69.42
61474;BME280;53694;49.784;30.150;2022-11-15T00:54:35;100478.64;;;5.97;70.18
61474;BME280;53694;49.784;30.150;2022-11-15T00:55:37;100481.33;;;5.75;70.88
61474;BME280;53694;49.784;30.150;2022-11-15T00:56:39;100477.95;;;5.56;71.68
61474;BME280;53694;49.784;30.150;2022-11-15T00:57:40;100484.76;;;5.44;72.39
61474;BME280;53694;49.784;30.150;2022-11-15T00:58:42;100482.23;;;5.48;72.75
61474;BME280;53694;49.784;30.150;2022-11-15T00:59:43;100479.95;;;5.64;72.71
61474;BME280;53694;49.784;30.150;2022-11-15T01:00:45;100477.75;;;5.88;72.40
61474;BME280;53694;49.784;30.150;2022-11-15T01:01:47;100473.30;;;6.15;71.67
61474;BME280;53694;49.784;30.150;2022-11-15T01:02:48;100474.77;;;6.43;70.83
61474;BME280;53694;49.784;30.150;2022-11-15T01:03:49;100473.47;;;6.72;69.98
61474;BME280;53694;49.784;30.150;2022-11-15T01:04:51;100473.23;;;6.99;68.99
61474;BME280;53694;49.784;30.150;2022-11-15T01:05:52;100479.42;;;7.22;68.00
61474;BME280;53694;49.784;30.150;2022-11-15T01:06:54;100483.14;;;7.35;67.28
61474;BME280;53694;49.784;30.150;2022-11-15T01:07:55;100488.61;;;7.35;66.94
61474;BME280;53694;49.784;30.150;2022-11-15T01:08:57;100490.65;;;7.21;66.86
61474;BME280;53694;49.784;30.150;2022-11-15T01:09:59;100486.89;;;6.99;67.04
61474;BME280;53694;49.784;30.150;2022-11-15T01:11:06;100493.06;;;6.74;67.41
61474;BME280;53694;49.784;30.150;2022-11-15T01:12:08;100478.48;;;6.47;68.15
61474;BME280;53694;49.784;30.150;2022-11-15T01:13:09;100473.17;;;6.20;68.87
61474;BME280;53694;49.784;30.150;2022-11-15T01:14:11;100473.80;;;5.94;69.58
61474;BME280;53694;49.784;30.150;2022-11-15T01:15:13;100466.20;;;5.69;70.44
61474;BME280;53694;49.784;30.150;2022-11-15T01:16:17;100465.05;;;5.47;71.30
61474;BME280;53694;49.784;30.150;2022-11-15T01:17:19;100468.24;;;5.27;72.14
61474;BME280;53694;49.784;30.150;2022-11-15T01:18:20;100465.44;;;5.18;72.84
61474;BME280;53694;49.784;30.150;2022-11-15T01:19:22;100463.08;;;5.25;73.01
61474;BME280;53694;49.784;30.150;2022-11-15T01:20:24;100460.44;;;5.48;72.87
61474;BME280;53694;49.784;30.150;2022-11-15T01:21:26;100451.23;;;5.80;72.21
61474;BME280;53694;49.784;30.150;2022-11-15T01:22:27;100449.09;;;6.13;71.26
61474;BME280;53694;49.784;30.150;2022-11-15T01:23:29;100460.52;;;6.46;69.90
61474;BME280;53694;49.784;30.150;2022-11-15T01:24:30;100466.73;;;6.78;68.98
61474;BME280;53694;49.784;30.150;2022-11-15T01:25:32;100456.40;;;7.06;67.73
61474;BME280;53694;49.784;30.150;2022-11-15T01:26:34;100464.63;;;7.23;67.02
61474;BME280;53694;49.784;30.150;2022-11-15T01:27:35;100453.87;;;7.27;66.49
61474;BME280;53694;49.784;30.150;2022-11-15T01:28:38;100455.80;;;7.18;66.40
61474;BME280;53694;49.784;30.150;2022-11-15T01:29:40;100460.38;;;7.00;66.40
61474;BME280;53694;49.784;30.150;2022-11-15T01:30:42;100455.81;;;6.78;66.86
61474;BME280;53694;49.784;30.150;2022-11-15T01:31:43;100448.33;;;6.53;67.34
61474;BME280;53694;49.784;30.150;2022-11-15T01:32:45;100447.88;;;6.28;67.87
61474;BME280;53694;49.784;30.150;2022-11-15T01:33:47;100448.52;;;6.03;68.46
61474;BME280;53694;49.784;30.150;2022-11-15T01:34:49;100445.30;;;5.78;69.20
61474;BME280;53694;49.784;30.150;2022-11-15T01:35:50;100445.25;;;5.56;70.04
61474;BME280;53694;49.784;30.150;2022-11-15T01:36:52;100436.45;;;5.36;70.75
61474;BME280;53694;49.784;30.150;2022-11-15T01:37:54;100430.03;;;5.18;71.38
61474;BME280;53694;49.784;30.150;2022-11-15T01:38:57;100437.60;;;5.08;72.12
61474;BME280;53694;49.784;30.150;2022-11-15T01:39:59;100435.28;;;5.15;72.43
61474;BME280;53694;49.784;30.150;2022-11-15T01:41:01;100432.60;;;5.37;72.21
61474;BME280;53694;49.784;30.150;2022-11-15T01:42:03;100428.68;;;5.66;71.56
61474;BME280;53694;49.784;30.150;2022-11-15T01:43:26;100429.56;;;5.97;70.87
61474;BME280;53694;49.784;30.150;2022-11-15T01:45:36;100427.36;;;6.70;68.79
61474;BME280;53694;49.784;30.150;2022-11-15T01:46:38;100430.52;;;7.04;67.98
61474;BME280;53694;49.784;30.150;2022-11-15T01:47:51;100421.72;;;7.24;66.70
61474;BME280;53694;49.784;30.150;2022-11-15T01:48:57;100421.89;;;7.28;66.24
61474;BME280;53694;49.784;30.150;2022-11-15T01:50:08;100424.91;;;7.17;66.31
61474;BME280;53694;49.784;30.150;2022-11-15T01:51:13;100415.41;;;6.97;66.51
61474;BME280;53694;49.784;30.150;2022-11-15T01:52:18;100415.97;;;6.68;66.95
61474;BME280;53694;49.784;30.150;2022-11-15T01:53:23;100416.02;;;6.37;67.61
61474;BME280;53694;49.784;30.150;2022-11-15T01:54:26;100418.91;;;6.10;68.63
61474;BME280;53694;49.784;30.150;2022-11-15T01:55:28;100411.33;;;5.84;69.40
61474;BME280;53694;49.784;30.150;2022-11-15T01:56:33;100417.27;;;5.64;70.12
61474;BME280;53694;49.784;30.150;2022-11-15T01:57:36;100422.58;;;5.46;70.87
61474;BME280;53694;49.784;30.150;2022-11-15T01:58:39;100412.14;;;5.26;71.58
61474;BME280;53694;49.784;30.150;2022-11-15T01:59:43;100409.86;;;5.19;72.12
61474;BME280;53694;49.784;30.150;2022-11-15T02:00:46;100405.41;;;5.23;72.38
61474;BME280;53694;49.784;30.150;2022-11-15T02:01:48;100416.14;;;5.42;72.26
61474;BME280;53694;49.784;30.150;2022-11-15T02:02:50;100421.80;;;5.68;71.92
61474;BME280;53694;49.784;30.150;2022-11-15T02:03:55;100415.64;;;5.99;71.25
61474;BME280;53694;49.784;30.150;2022-11-15T02:04:57;100415.65;;;6.30;70.30
61474;BME280;53694;49.784;30.150;2022-11-15T02:05:59;100413.20;;;6.60;69.20
61474;BME280;53694;49.784;30.150;2022-11-15T02:07:03;100412.96;;;6.87;68.40
61474;BME280;53694;49.784;30.150;2022-11-15T02:08:06;100407.88;;;7.12;67.58
61474;BME280;53694;49.784;30.150;2022-11-15T02:09:08;100403.06;;;7.26;66.75
61474;BME280;53694;49.784;30.150;2022-11-15T02:10:13;100403.06;;;7.26;66.32
61474;BME280;53694;49.784;30.150;2022-11-15T02:11:15;100413.67;;;7.10;66.03
61474;BME280;53694;49.784;30.150;2022-11-15T02:12:19;100407.33;;;6.84;66.51
61474;BME280;53694;49.784;30.150;2022-11-15T02:13:22;100399.38;;;6.56;67.34
61474;BME280;53694;49.784;30.150;2022-11-15T02:14:26;100406.48;;;6.26;68.09
61474;BME280;53694;49.784;30.150;2022-11-15T02:15:33;100405.35;;;5.96;69.08
61474;BME280;53694;49.784;30.150;2022-11-15T02:16:58;100409.48;;;5.71;70.03
61474;BME280;53694;49.784;30.150;2022-11-15T02:30:44;100413.69;;;7.19;65.09
61474;BME280;53694;49.784;30.150;2022-11-15T02:34:25;100406.20;;;6.36;66.40
61474;BME280;53694;49.784;30.150;2022-11-15T02:35:37;100406.34;;;6.00;67.54
61474;BME280;53694;49.784;30.150;2022-11-15T02:37:59;100407.41;;;5.32;69.63
61474;BME280;53694;49.784;30.150;2022-11-15T02:41:50;100403.16;;;4.62;72.77
61474;BME280;53694;49.784;30.150;2022-11-15T02:42:42;100400.05;;;4.55;73.43
61474;BME280;53694;49.784;30.150;2022-11-15T02:43:50;100396.80;;;4.66;73.68
61474;BME280;53694;49.784;30.150;2022-11-15T02:44:53;100399.31;;;4.90;73.22
61474;BME280;53694;49.784;30.150;2022-11-15T02:47:21;100402.91;;;5.49;71.38
61474;BME280;53694;49.784;30.150;2022-11-15T02:48:25;100400.61;;;5.88;70.22
61474;BME280;53694;49.784;30.150;2022-11-15T02:49:29;100394.22;;;6.15;69.33
61474;BME280;53694;49.784;30.150;2022-11-15T02:50:32;100398.52;;;6.38;68.26
61474;BME280;53694;49.784;30.150;2022-11-15T02:51:35;100396.83;;;6.60;67.59
61474;BME280;53694;49.784;30.150;2022-11-15T02:52:37;100387.88;;;6.68;66.72
61474;BME280;53694;49.784;30.150;2022-11-15T02:53:38;100401.67;;;6.63;66.67
61474;BME280;53694;49.784;30.150;2022-11-15T02:54:40;100403.20;;;6.46;67.08
61474;BME280;53694;49.784;30.150;2022-11-15T02:55:44;100400.52;;;6.24;67.61
61474;BME280;53694;49.784;30.150;2022-11-15T02:56:47;100396.84;;;5.97;68.34
61474;BME280;53694;49.784;30.150;2022-11-15T03:00:41;100391.72;;;5.15;71.37
61474;BME280;53694;49.784;30.150;2022-11-15T03:03:29;100384.30;;;4.79;73.35
61474;BME280;53694;49.784;30.150;2022-11-15T03:05:56;100382.98;;;5.26;73.08
61474;BME280;53694;49.784;30.150;2022-11-15T03:07:10;100381.84;;;5.64;71.97
61474;BME280;53694;49.784;30.150;2022-11-15T03:09:42;100372.47;;;6.32;70.25
61474;BME280;53694;49.784;30.150;2022-11-15T03:12:04;100369.46;;;6.99;67.85
61474;BME280;53694;49.784;30.150;2022-11-15T03:14:35;100371.91;;;7.27;65.60
61474;BME280;53694;49.784;30.150;2022-11-15T03:15:41;100365.78;;;7.13;65.46
61474;BME280;53694;49.784;30.150;2022-11-15T03:17:57;100374.80;;;6.47;66.79
61474;BME280;53694;49.784;30.150;2022-11-15T03:20:09;100372.73;;;5.68;68.47
61474;BME280;53694;49.784;30.150;2022-11-15T03:21:14;100380.36;;;5.35;69.53
61474;BME280;53694;49.784;30.150;2022-11-15T03:22:20;100374.18;;;5.07;70.54
61474;BME280;53694;49.784;30.150;2022-11-15T03:23:22;100372.21;;;4.85;71.55
61474;BME280;53694;49.784;30.150;2022-11-15T03:24:26;100371.53;;;4.64;72.47
61474;BME280;53694;49.784;30.150;2022-11-15T03:25:30;100371.53;;;4.52;73.27
61474;BME280;53694;49.784;30.150;2022-11-15T03:26:36;100373.83;;;4.59;73.46
61474;BME280;53694;49.784;30.150;2022-11-15T03:27:41;100371.81;;;4.78;73.24
61474;BME280;53694;49.784;30.150;2022-11-15T03:28:59;100365.50;;;5.05;72.76
61474;BME280;53694;49.784;30.150;2022-11-15T03:30:04;100367.03;;;5.34;71.96
61474;BME280;53694;49.784;30.150;2022-11-15T03:31:07;100364.75;;;5.72;71.35
61474;BME280;53694;49.784;30.150;2022-11-15T03:32:18;100359.23;;;6.08;70.25
61474;BME280;53694;49.784;30.150;2022-11-15T03:33:16;100355.48;;;6.35;69.14
61474;BME280;53694;49.784;30.150;2022-11-15T03:34:24;100352.55;;;6.63;68.37
61474;BME280;53694;49.784;30.150;2022-11-15T03:35:27;100361.74;;;6.84;67.29
61474;BME280;53694;49.784;30.150;2022-11-15T03:36:31;100357.89;;;6.94;66.54
61474;BME280;53694;49.784;30.150;2022-11-15T03:37:48;100345.20;;;6.89;66.47
61474;BME280;53694;49.784;30.150;2022-11-15T03:38:49;100356.09;;;6.72;66.54
61474;BME280;53694;49.784;30.150;2022-11-15T03:39:52;100349.27;;;6.43;67.20
61474;BME280;53694;49.784;30.150;2022-11-15T03:41:06;100344.51;;;6.18;67.85
61474;BME280;53694;49.784;30.150;2022-11-15T03:43:29;100343.50;;;5.60;69.58
61474;BME280;53694;49.784;30.150;2022-11-15T03:45:43;100333.54;;;5.11;71.59
61474;BME280;53694;49.784;30.150;2022-11-15T03:46:53;100332.99;;;4.86;72.37
61474;BME280;53694;49.784;30.150;2022-11-15T03:47:58;100334.63;;;4.73;73.24
61474;BME280;53694;49.784;30.150;2022-11-15T03:49:10;100338.03;;;4.79;73.64
61474;BME280;53694;49.784;30.150;2022-11-15T03:50:20;100335.19;;;4.98;73.55
61474;BME280;53694;49.784;30.150;2022-11-15T03:51:19;100331.75;;;5.29;73.01
61474;BME280;53694;49.784;30.150;2022-11-15T03:52:21;100329.41;;;5.58;72.19
61474;BME280;53694;49.784;30.150;2022-11-15T03:53:23;100331.95;;;5.86;71.19
61474;BME280;53694;49.784;30.150;2022-11-15T03:54:25;100328.91;;;6.10;70.22
61474;BME280;53694;49.784;30.150;2022-11-15T03:55:27;100329.33;;;6.34;69.83
61474;BME280;53694;49.784;30.150;2022-11-15T03:56:28;100332.13;;;6.60;69.31
61474;BME280;53694;49.784;30.150;2022-11-15T03:57:30;100329.45;;;6.86;68.20
61474;BME280;53694;49.784;30.150;2022-11-15T03:58:32;100325.77;;;6.99;67.38
61474;BME280;53694;49.784;30.150;2022-11-15T03:59:33;100325.30;;;6.97;67.17
61474;BME280;53694;49.784;30.150;2022-11-15T04:00:35;100318.53;;;6.86;67.29
61474;BME280;53694;49.784;30.150;2022-11-15T04:01:36;100323.46;;;6.67;67.53
61474;BME280;53694;49.784;30.150;2022-11-15T04:02:38;100322.77;;;6.44;68.27
61474;BME280;53694;49.784;30.150;2022-11-15T04:03:40;100314.51;;;6.18;68.87
61474;BME280;53694;49.784;30.150;2022-11-15T04:04:41;100326.58;;;5.94;69.62
61474;BME280;53694;49.784;30.150;2022-11-15T04:05:43;100320.95;;;5.68;70.38
61474;BME280;53694;49.784;30.150;2022-11-15T04:06:44;100320.98;;;5.46;71.14
61474;BME280;53694;49.784;30.150;2022-11-15T04:07:46;100319.06;;;5.24;71.98
61474;BME280;53694;49.784;30.150;2022-11-15T04:08:47;100311.44;;;5.12;72.74
61474;BME280;53694;49.784;30.150;2022-11-15T04:09:49;100314.36;;;5.16;73.11
61474;BME280;53694;49.784;30.150;2022-11-15T04:10:51;100307.44;;;5.32;73.12
61474;BME280;53694;49.784;30.150;2022-11-15T04:11:52;100308.91;;;5.61;72.80
61474;BME280;53694;49.784;30.150;2022-11-15T04:12:54;100297.78;;;5.80;71.89
61474;BME280;53694;49.784;30.150;2022-11-15T04:13:55;100312.91;;;6.17;71.12
61474;BME280;53694;49.784;30.150;2022-11-15T04:16:02;100308.56;;;6.73;69.27
61474;BME280;53694;49.784;30.150;2022-11-15T04:17:04;100309.55;;;6.94;68.44
61474;BME280;53694;49.784;30.150;2022-11-15T04:18:05;100300.39;;;7.16;67.78
61474;BME280;53694;49.784;30.150;2022-11-15T04:19:07;100301.98;;;7.26;66.55
61474;BME280;53694;49.784;30.150;2022-11-15T04:20:15;100292.19;;;7.16;66.54
61474;BME280;53694;49.784;30.150;2022-11-15T04:21:14;100293.63;;;6.96;66.86
61474;BME280;53694;49.784;30.150;2022-11-15T04:22:15;100291.67;;;6.71;67.55
61474;BME280;53694;49.784;30.150;2022-11-15T04:23:21;100290.84;;;6.44;68.12
61474;BME280;53694;49.784;30.150;2022-11-15T04:24:23;100288.03;;;6.18;68.88
61474;BME280;53694;49.784;30.150;2022-11-15T04:25:25;100283.72;;;5.86;69.92
61474;BME280;53694;49.784;30.150;2022-11-15T04:26:26;100282.14;;;5.63;70.79
61474;BME280;53694;49.784;30.150;2022-11-15T04:27:28;100283.27;;;5.39;71.63
61474;BME280;53694;49.784;30.150;2022-11-15T04:28:30;100276.72;;;5.18;72.43
61474;BME280;53694;49.784;30.150;2022-11-15T04:29:31;100281.23;;;5.00;73.28
61474;BME280;53694;49.784;30.150;2022-11-15T04:30:33;100282.03;;;5.00;73.81
61474;BME280;53694;49.784;30.150;2022-11-15T04:31:35;100287.13;;;5.16;73.92
61474;BME280;53694;49.784;30.150;2022-11-15T04:32:36;100278.14;;;5.38;73.51
61474;BME280;53694;49.784;30.150;2022-11-15T04:33:38;100289.20;;;5.64;72.67
61474;BME280;53694;49.784;30.150;2022-11-15T04:34:39;100286.30;;;5.91;71.72
61474;BME280;53694;49.784;30.150;2022-11-15T04:35:42;100279.67;;;6.15;70.69
61474;BME280;53694;49.784;30.150;2022-11-15T04:36:43;100276.88;;;6.37;69.92
61474;BME280;53694;49.784;30.150;2022-11-15T04:37:46;100271.30;;;6.60;69.07
61474;BME280;53694;49.784;30.150;2022-11-15T04:38:47;100274.20;;;6.81;68.16
61474;BME280;53694;49.784;30.150;2022-11-15T04:39:49;100275.81;;;6.90;67.57
61474;BME280;53694;49.784;30.150;2022-11-15T04:40:50;100281.10;;;6.87;67.48
61474;BME280;53694;49.784;30.150;2022-11-15T04:41:52;100272.43;;;6.67;67.58
61474;BME280;53694;49.784;30.150;2022-11-15T04:42:53;100276.06;;;6.45;68.18
61474;BME280;53694;49.784;30.150;2022-11-15T04:43:55;100272.47;;;6.19;68.68
61474;BME280;53694;49.784;30.150;2022-11-15T04:44:57;100267.04;;;5.88;69.30
61474;BME280;53694;49.784;30.150;2022-11-15T04:45:58;100274.91;;;5.58;70.16
61474;BME280;53694;49.784;30.150;2022-11-15T04:47:00;100272.03;;;5.32;70.98
61474;BME280;53694;49.784;30.150;2022-11-15T04:48:02;100275.05;;;5.08;71.92
61474;BME280;53694;49.784;30.150;2022-11-15T04:49:04;100274.59;;;4.92;72.77
61474;BME280;53694;49.784;30.150;2022-11-15T04:50:06;100269.98;;;4.93;73.19
61474;BME280;53694;49.784;30.150;2022-11-15T04:51:08;100272.31;;;5.31;72.65
61474;BME280;53694;49.784;30.150;2022-11-15T04:52:09;100272.31;;;5.31;72.65
61474;BME280;53694;49.784;30.150;2022-11-15T04:53:11;100269.27;;;5.55;72.08
61474;BME280;53694;49.784;30.150;2022-11-15T04:54:13;100267.98;;;5.83;71.39
61474;BME280;53694;49.784;30.150;2022-11-15T04:55:15;100270.04;;;6.09;70.41
61474;BME280;53694;49.784;30.150;2022-11-15T04:56:16;100268.52;;;6.34;69.54
61474;BME280;53694;49.784;30.150;2022-11-15T04:57:18;100269.99;;;6.57;68.77
61474;BME280;53694;49.784;30.150;2022-11-15T04:58:19;100270.52;;;6.76;67.72
61474;BME280;53694;49.784;30.150;2022-11-15T04:59:21;100269.38;;;6.86;67.28
61474;BME280;53694;49.784;30.150;2022-11-15T05:00:23;100268.09;;;6.84;66.98
61474;BME280;53694;49.784;30.150;2022-11-15T05:01:24;100266.14;;;6.67;67.18
61474;BME280;53694;49.784;30.150;2022-11-15T05:02:26;100259.69;;;6.45;67.69
61474;BME280;53694;49.784;30.150;2022-11-15T05:03:27;100263.99;;;6.20;68.43
61474;BME280;53694;49.784;30.150;2022-11-15T05:04:29;100263.58;;;5.96;69.24
61474;BME280;53694;49.784;30.150;2022-11-15T05:05:30;100260.39;;;5.71;69.95
61474;BME280;53694;49.784;30.150;2022-11-15T05:06:32;100269.73;;;5.48;70.67
61474;BME280;53694;49.784;30.150;2022-11-15T05:07:33;100263.00;;;5.23;71.46
61474;BME280;53694;49.784;30.150;2022-11-15T05:08:35;100254.81;;;5.00;72.23
61474;BME280;53694;49.784;30.150;2022-11-15T05:09:36;100252.95;;;4.87;73.09
61474;BME280;53694;49.784;30.150;2022-11-15T05:10:38;100251.22;;;4.91;73.40
61474;BME280;53694;49.784;30.150;2022-11-15T05:11:41;100252.47;;;5.08;73.28
61474;BME280;53694;49.784;30.150;2022-11-15T05:12:42;100255.69;;;5.32;72.73
61474;BME280;53694;49.784;30.150;2022-11-15T05:13:44;100252.78;;;5.60;72.03
61474;BME280;53694;49.784;30.150;2022-11-15T05:14:46;100260.61;;;5.84;70.99
61474;BME280;53694;49.784;30.150;2022-11-15T05:15:47;100264.08;;;6.07;70.13
61474;BME280;53694;49.784;30.150;2022-11-15T05:16:49;100259.36;;;6.30;69.44
61474;BME280;53694;49.784;30.150;2022-11-15T05:17:50;100256.84;;;6.50;68.47
61474;BME280;53694;49.784;30.150;2022-11-15T05:18:53;100251.56;;;6.71;68.08
61474;BME280;53694;49.784;30.150;2022-11-15T05:19:55;100256.86;;;6.85;67.32
61474;BME280;53694;49.784;30.150;2022-11-15T05:21:05;100257.50;;;6.82;66.67
61474;BME280;53694;49.784;30.150;2022-11-15T05:22:07;100249.77;;;6.67;66.97
61474;BME280;53694;49.784;30.150;2022-11-15T05:23:09;100247.51;;;6.43;67.36
61474;BME280;53694;49.784;30.150;2022-11-15T05:24:10;100258.98;;;6.14;67.97
61474;BME280;53694;49.784;30.150;2022-11-15T05:25:12;100254.03;;;5.85;68.81
61474;BME280;53694;49.784;30.150;2022-11-15T05:26:16;100247.66;;;5.58;69.75
61474;BME280;53694;49.784;30.150;2022-11-15T05:27:17;100246.39;;;5.33;70.68
61474;BME280;53694;49.784;30.150;2022-11-15T05:28:19;100253.59;;;5.07;71.42
61474;BME280;53694;49.784;30.150;2022-11-15T05:29:20;100267.67;;;4.86;72.15
61474;BME280;53694;49.784;30.150;2022-11-15T05:30:22;100258.76;;;4.72;72.84
61474;BME280;53694;49.784;30.150;2022-11-15T05:31:24;100252.68;;;4.75;73.10
61474;BME280;53694;49.784;30.150;2022-11-15T05:32:27;100257.78;;;4.90;73.07
61474;BME280;53694;49.784;30.150;2022-11-15T05:33:30;100251.73;;;5.16;72.49
61474;BME280;53694;49.784;30.150;2022-11-15T05:34:31;100252.69;;;5.42;71.48
61474;BME280;53694;49.784;30.150;2022-11-15T05:35:38;100258.46;;;5.72;70.80
61474;BME280;53694;49.784;30.150;2022-11-15T05:36:41;100257.80;;;5.97;69.98
61474;BME280;53694;49.784;30.150;2022-11-15T05:37:43;100253.23;;;6.24;68.88
61474;BME280;53694;49.784;30.150;2022-11-15T05:38:45;100252.01;;;6.47;67.86
61474;BME280;53694;49.784;30.150;2022-11-15T05:39:47;100257.15;;;6.58;66.79
61474;BME280;53694;49.784;30.150;2022-11-15T05:40:49;100247.99;;;6.54;66.69
61474;BME280;53694;49.784;30.150;2022-11-15T05:41:54;100247.80;;;6.41;67.25
61474;BME280;53694;49.784;30.150;2022-11-15T05:42:57;100251.45;;;6.19;67.41
61474;BME280;53694;49.784;30.150;2022-11-15T05:44:01;100245.41;;;5.91;67.98
61474;BME280;53694;49.784;30.150;2022-11-15T05:45:06;100253.30;;;5.62;68.87
61474;BME280;53694;49.784;30.150;2022-11-15T05:46:10;100245.78;;;5.36;69.70
61474;BME280;53694;49.784;30.150;2022-11-15T05:47:15;100249.94;;;5.11;70.66
61474;BME280;53694;49.784;30.150;2022-11-15T05:48:17;100248.02;;;4.89;71.51
61474;BME280;53694;49.784;30.150;2022-11-15T05:49:22;100246.56;;;4.69;72.36
61474;BME280;53694;49.784;30.150;2022-11-15T05:50:24;100238.33;;;4.61;73.00
61474;BME280;53694;49.784;30.150;2022-11-15T05:51:27;100250.69;;;4.67;73.35
61474;BME280;53694;49.784;30.150;2022-11-15T05:52:31;100253.27;;;4.86;73.20
61474;BME280;53694;49.784;30.150;2022-11-15T05:53:34;100249.94;;;5.11;72.67
61474;BME280;53694;49.784;30.150;2022-11-15T05:54:37;100245.16;;;5.70;70.98
61474;BME280;53694;49.784;30.150;2022-11-15T05:55:40;100245.16;;;5.70;70.98
61474;BME280;53694;49.784;30.150;2022-11-15T05:56:42;100249.33;;;5.99;70.02
61474;BME280;53694;49.784;30.150;2022-11-15T05:57:45;100246.34;;;6.26;69.15
61474;BME280;53694;49.784;30.150;2022-11-15T05:58:46;100248.32;;;6.52;68.48
61474;BME280;53694;49.784;30.150;2022-11-15T05:59:48;100252.53;;;6.75;67.86
61474;BME280;53694;49.784;30.150;2022-11-15T06:00:50;100253.64;;;6.92;67.30
61474;BME280;53694;49.784;30.150;2022-11-15T06:01:51;100256.06;;;6.93;66.65
61474;BME280;53694;49.784;30.150;2022-11-15T06:02:53;100255.09;;;6.81;66.75
61474;BME280;53694;49.784;30.150;2022-11-15T06:03:54;100255.22;;;6.58;66.82
61474;BME280;53694;49.784;30.150;2022-11-15T06:04:56;100249.55;;;6.29;67.39
61474;BME280;53694;49.784;30.150;2022-11-15T06:05:57;100250.92;;;6.00;68.23
61474;BME280;53694;49.784;30.150;2022-11-15T06:06:59;100255.44;;;5.73;69.04